Time;durP1;ratioP1;P1;durP2;ratioP2;P2;SDS_P1;SDS_P2;PMS_P1;PMS_P2;Temp;Humidity;BMP_temperature;BMP_pressure;BME280_temperature;BME280_humidity;BME280_pressure;Samples;Min_cycle;Max_cycle;Signal;HPM_P1;HPM_P2
2021/06/11 00:00:34;;;;;;;7.87;7.23;;;19.80;99.90;;;;;;5094654;28;20437;-79
2021/06/11 00:03:02;;;;;;;7.43;6.73;;;19.80;99.90;;;;;;5092868;28;20976;-79
2021/06/11 00:05:30;;;;;;;7.07;6.47;;;19.80;99.90;;;;;;5093500;28;20548;-79
2021/06/11 00:07:58;;;;;;;8.23;6.70;;;19.70;99.90;;;;;;5081398;28;20878;-79
2021/06/11 00:10:25;;;;;;;7.13;6.43;;;19.70;99.90;;;;;;5088862;28;20534;-79
2021/06/11 00:12:54;;;;;;;7.17;6.57;;;19.70;99.90;;;;;;5094923;28;20453;-83
2021/06/11 00:15:23;;;;;;;7.43;6.73;;;19.60;99.90;;;;;;5094515;28;20555;-79
2021/06/11 00:17:51;;;;;;;7.17;6.57;;;19.60;99.90;;;;;;5072523;28;20459;-79
2021/06/11 00:20:20;;;;;;;6.60;6.10;;;19.60;99.90;;;;;;5074426;28;21257;-79
2021/06/11 00:22:48;;;;;;;7.03;6.07;;;19.60;99.90;;;;;;5089743;28;20449;-82
2021/06/11 00:25:20;;;;;;;9.47;8.07;;;19.60;99.90;;;;;;5094712;28;20879;-81
2021/06/11 00:27:47;;;;;;;7.67;6.93;;;19.50;99.90;;;;;;5093646;28;20453;-80
2021/06/11 00:30:20;;;;;;;8.80;6.70;;;19.50;99.90;;;;;;5094233;28;20984;-81
2021/06/11 00:32:48;;;;;;;8.87;7.10;;;19.50;99.90;;;;;;5085925;28;20541;-82
2021/06/11 00:35:16;;;;;;;7.77;7.07;;;19.50;99.90;;;;;;5089353;28;20498;-77
2021/06/11 00:37:43;;;;;;;7.17;6.47;;;19.50;1.00;;;;;;5093435;28;20445;-77
2021/06/11 00:40:12;;;;;;;8.67;7.50;;;19.50;1.00;;;;;;5093869;28;20440;-78
2021/06/11 00:42:40;;;;;;;7.23;6.50;;;19.50;1.00;;;;;;5093713;28;20449;-79
2021/06/11 00:45:09;;;;;;;7.63;6.63;;;19.50;99.90;;;;;;5094799;28;20941;-81
2021/06/11 00:47:38;;;;;;;8.37;7.30;;;19.50;99.90;;;;;;5094575;28;20441;-80
2021/06/11 00:50:08;;;;;;;8.40;7.60;;;19.50;99.90;;;;;;5092742;28;21384;-79
2021/06/11 00:52:36;;;;;;;8.50;7.80;;;19.40;99.90;;;;;;5095350;28;20449;-82
2021/06/11 00:55:04;;;;;;;9.37;7.23;;;19.40;99.90;;;;;;5094241;28;20524;-80
2021/06/11 00:57:32;;;;;;;7.87;7.17;;;19.40;99.90;;;;;;5096320;28;20556;-79
2021/06/11 01:00:00;;;;;;;7.90;7.10;;;19.30;99.90;;;;;;5093980;28;20438;-79
2021/06/11 01:02:28;;;;;;;7.57;6.83;;;19.30;99.90;;;;;;5094152;28;20457;-80
2021/06/11 01:04:57;;;;;;;8.17;7.43;;;19.30;99.90;;;;;;5090864;28;20457;-81
2021/06/11 01:07:26;;;;;;;7.83;7.17;;;19.30;99.90;;;;;;5093855;28;20445;-81
2021/06/11 01:09:55;;;;;;;7.73;6.83;;;19.30;99.90;;;;;;5094420;28;20469;-81
2021/06/11 01:12:23;;;;;;;7.33;6.60;;;19.20;99.90;;;;;;5094173;28;20446;-81
2021/06/11 01:14:51;;;;;;;7.23;6.63;;;19.20;99.90;;;;;;5093091;28;20450;-81
2021/06/11 01:17:19;;;;;;;6.23;5.73;;;19.20;99.90;;;;;;5094066;28;20469;-80
2021/06/11 01:19:49;;;;;;;7.07;6.13;;;19.20;99.90;;;;;;5093575;28;20521;-81
2021/06/11 01:22:24;;;;;;;6.50;5.90;;;19.20;99.90;;;;;;5093043;28;20536;-82
2021/06/11 01:25:00;;;;;;;7.90;6.50;;;19.20;99.90;;;;;;5093387;28;20463;-81
2021/06/11 01:27:31;;;;;;;6.97;6.10;;;19.20;99.90;;;;;;5120591;27;20821;-81
2021/06/11 01:30:05;;;;;;;7.00;6.30;;;19.10;99.90;;;;;;5088600;28;20473;-81
2021/06/11 01:32:34;;;;;;;7.33;6.63;;;19.10;99.90;;;;;;5093126;28;20961;-81
2021/06/11 01:35:04;;;;;;;6.83;6.23;;;19.10;99.90;;;;;;5093973;28;20454;-79
2021/06/11 01:37:34;;;;;;;8.60;6.30;;;19.10;99.90;;;;;;5088727;28;20445;-79
2021/06/11 01:40:07;;;;;;;7.50;6.80;;;19.00;99.90;;;;;;5092078;28;20443;-80
2021/06/11 01:42:38;;;;;;;7.40;6.70;;;19.00;99.90;;;;;;5094000;28;20505;-81
2021/06/11 01:45:09;;;;;;;8.13;7.30;;;19.00;99.90;;;;;;5107122;28;20450;-80
2021/06/11 01:47:40;;;;;;;6.80;6.20;;;19.00;99.90;;;;;;5074737;28;21113;-83
2021/06/11 01:50:10;;;;;;;7.50;6.37;;;18.90;99.90;;;;;;5083717;28;20465;-79
2021/06/11 01:52:39;;;;;;;7.43;6.70;;;18.90;99.90;;;;;;5090285;28;20979;-81
2021/06/11 01:55:09;;;;;;;8.60;7.70;;;18.90;99.90;;;;;;5094384;28;20457;-79
2021/06/11 01:57:40;;;;;;;8.87;8.07;;;18.90;99.90;;;;;;5093824;28;20457;-82
2021/06/11 02:00:08;;;;;;;8.63;7.70;;;18.90;99.90;;;;;;5093286;28;20476;-81
2021/06/11 02:02:36;;;;;;;10.17;7.60;;;18.90;99.90;;;;;;5093551;28;20468;-81
2021/06/11 02:05:06;;;;;;;10.20;7.70;;;18.90;99.90;;;;;;5092176;28;21019;-82
2021/06/11 02:07:35;;;;;;;7.80;7.07;;;18.90;99.90;;;;;;5095252;28;20796;-82
2021/06/11 02:10:04;;;;;;;8.60;7.70;;;18.80;99.90;;;;;;5093021;28;20475;-82
2021/06/11 02:12:33;;;;;;;10.97;8.40;;;18.80;99.90;;;;;;5093941;28;20479;-84
2021/06/11 02:15:04;;;;;;;8.90;8.00;;;18.80;99.90;;;;;;5094011;28;20457;-81
2021/06/11 02:17:32;;;;;;;8.93;8.03;;;18.80;99.90;;;;;;5088039;28;20448;-81
2021/06/11 02:20:00;;;;;;;9.47;7.70;;;18.80;99.90;;;;;;5092787;28;20851;-81
2021/06/11 02:22:28;;;;;;;9.50;8.60;;;18.80;99.90;;;;;;5073584;28;20460;-82
2021/06/11 02:24:55;;;;;;;9.40;7.50;;;18.80;99.90;;;;;;5086476;28;20456;-81
2021/06/11 02:27:23;;;;;;;9.60;8.60;;;18.80;99.90;;;;;;5094049;28;20992;-80
2021/06/11 02:29:51;;;;;;;9.40;7.90;;;18.80;99.90;;;;;;5093266;28;20468;-80
2021/06/11 02:32:20;;;;;;;8.87;7.97;;;18.80;1.00;;;;;;5092283;28;20462;-85
2021/06/11 02:34:48;;;;;;;10.00;8.10;;;18.70;1.00;;;;;;5090586;28;21157;-81
2021/06/11 02:37:15;;;;;;;9.10;8.20;;;18.70;1.00;;;;;;5094115;28;20468;-82
2021/06/11 02:39:44;;;;;;;9.80;7.93;;;18.70;1.00;;;;;;5091269;28;20445;-81
2021/06/11 02:42:12;;;;;;;9.57;7.87;;;18.70;1.00;;;;;;5095190;28;20437;-81
2021/06/11 02:44:46;;;;;;;9.30;8.40;;;18.70;99.90;;;;;;5092018;28;20458;-80
2021/06/11 02:47:18;;;;;;;8.73;7.83;;;18.70;99.90;;;;;;5095218;28;20464;-80
2021/06/11 02:49:52;;;;;;;11.00;9.17;;;18.70;99.90;;;;;;5092520;28;20454;-81
2021/06/11 02:52:23;;;;;;;9.67;8.73;;;18.70;99.90;;;;;;5093276;28;20450;-81
2021/06/11 02:54:55;;;;;;;9.53;8.53;;;18.60;99.90;;;;;;5092797;28;20450;-81
2021/06/11 02:57:26;;;;;;;9.93;8.93;;;18.60;99.90;;;;;;5102309;28;20468;-80
2021/06/11 02:59:59;;;;;;;7.90;7.00;;;18.60;1.00;;;;;;5089883;28;20571;-81
2021/06/11 03:02:31;;;;;;;9.20;8.30;;;18.60;1.00;;;;;;5091733;28;20457;-77
2021/06/11 03:05:01;;;;;;;9.43;8.43;;;18.60;99.90;;;;;;5092660;28;20485;-81
2021/06/11 03:07:33;;;;;;;8.93;7.97;;;18.60;1.00;;;;;;5093775;28;20456;-81
2021/06/11 03:10:04;;;;;;;9.10;8.27;;;18.60;1.00;;;;;;5091825;28;20505;-80
2021/06/11 03:12:33;;;;;;;11.07;8.83;;;18.60;1.00;;;;;;5092548;28;20491;-80
2021/06/11 03:15:01;;;;;;;9.20;8.30;;;18.60;99.90;;;;;;5081799;28;20451;-79
2021/06/11 03:17:32;;;;;;;20.67;8.70;;;18.60;99.90;;;;;;5092965;28;20446;-82
2021/06/11 03:20:08;;;;;;;11.00;8.73;;;18.50;99.90;;;;;;5120900;27;20467;-83
2021/06/11 03:22:40;;;;;;;8.00;7.20;;;18.50;99.90;;;;;;5074143;28;20479;-81
2021/06/11 03:25:15;;;;;;;8.03;7.00;;;18.50;99.90;;;;;;5092204;28;20554;-80
2021/06/11 03:27:48;;;;;;;11.73;10.00;;;18.50;99.90;;;;;;5095760;28;20441;-81
2021/06/11 03:30:17;;;;;;;10.60;9.10;;;18.50;99.90;;;;;;5083975;28;20492;-80
2021/06/11 03:32:48;;;;;;;9.63;8.50;;;18.50;99.90;;;;;;5096505;28;20872;-82
2021/06/11 03:35:22;;;;;;;9.60;8.60;;;18.50;99.90;;;;;;5080909;28;20453;-79
2021/06/11 03:37:53;;;;;;;10.83;9.00;;;18.40;99.90;;;;;;5091483;28;20461;-83
2021/06/11 03:40:25;;;;;;;11.47;9.50;;;18.40;99.90;;;;;;5079511;28;20448;-80
2021/06/11 03:42:54;;;;;;;11.07;8.57;;;18.50;1.00;;;;;;5078278;28;20453;-79
2021/06/11 03:45:23;;;;;;;12.13;8.90;;;18.40;99.90;;;;;;5080936;28;20465;-80
2021/06/11 03:47:52;;;;;;;11.40;9.00;;;18.40;99.90;;;;;;5096084;28;20445;-81
2021/06/11 03:50:24;;;;;;;12.40;10.43;;;18.40;99.90;;;;;;5112688;27;20479;-82
2021/06/11 03:52:56;;;;;;;13.73;9.50;;;18.40;99.90;;;;;;5076367;28;20449;-83
2021/06/11 03:55:26;;;;;;;12.00;9.20;;;18.40;1.00;;;;;;5090642;28;20476;-79
2021/06/11 03:57:59;;;;;;;10.60;8.70;;;18.40;1.00;;;;;;5091978;28;20444;-79
2021/06/11 04:00:29;;;;;;;11.93;9.33;;;18.40;1.00;;;;;;5075475;28;20442;-79
2021/06/11 04:02:59;;;;;;;14.27;9.90;;;18.40;99.90;;;;;;5092981;28;20572;-80
2021/06/11 04:05:30;;;;;;;11.67;9.27;;;18.40;99.90;;;;;;5093726;28;20526;-78
2021/06/11 04:07:58;;;;;;;15.10;10.60;;;18.40;99.90;;;;;;5086047;28;20456;-79
2021/06/11 04:10:30;;;;;;;9.97;7.63;;;18.40;99.90;;;;;;5093532;28;20480;-77
2021/06/11 04:13:04;;;;;;;12.73;9.73;;;18.40;99.90;;;;;;5093513;28;20450;-79
2021/06/11 04:15:34;;;;;;;17.50;11.10;;;18.40;99.90;;;;;;5094818;28;20473;-79
2021/06/11 04:18:04;;;;;;;10.07;8.63;;;18.40;99.90;;;;;;5093447;28;20457;-84
2021/06/11 04:20:34;;;;;;;12.60;9.20;;;18.40;1.00;;;;;;5091468;28;20450;-78
2021/06/11 04:23:05;;;;;;;12.73;10.37;;;18.40;1.00;;;;;;5089102;28;20507;-79
2021/06/11 04:25:35;;;;;;;11.33;9.30;;;18.40;1.00;;;;;;5090403;28;20542;-77
2021/06/11 04:28:05;;;;;;;12.20;9.40;;;18.40;1.00;;;;;;5086071;28;20442;-75
2021/06/11 04:30:34;;;;;;;10.90;9.80;;;18.30;1.00;;;;;;5086843;28;20470;-79
2021/06/11 04:33:01;;;;;;;12.57;9.80;;;18.40;1.00;;;;;;5094575;28;20449;-79
2021/06/11 04:35:35;;;;;;;11.43;8.87;;;18.40;1.00;;;;;;5091835;28;21027;-82
2021/06/11 04:38:04;;;;;;;11.80;8.90;;;18.40;1.00;;;;;;5091052;28;20910;-80
2021/06/11 04:40:31;;;;;;;10.70;8.70;;;18.40;1.00;;;;;;5090523;28;20486;-80
2021/06/11 04:43:00;;;;;;;14.47;9.93;;;18.40;1.00;;;;;;5093510;28;20446;-77
2021/06/11 04:45:27;;;;;;;9.00;8.07;;;18.40;1.00;;;;;;5092395;28;20544;-79
2021/06/11 04:47:55;;;;;;;9.97;8.97;;;18.40;98.20;;;;;;5079271;28;20545;-77
2021/06/11 04:50:24;;;;;;;9.10;8.20;;;18.40;99.90;;;;;;5091002;28;20440;-79
2021/06/11 04:52:52;;;;;;;9.40;8.50;;;18.40;99.90;;;;;;5093529;28;20478;-79
2021/06/11 04:55:21;;;;;;;8.97;7.60;;;18.50;99.90;;;;;;5093369;28;20487;-82
2021/06/11 04:57:51;;;;;;;8.90;8.00;;;18.50;99.90;;;;;;5092067;28;20453;-82
2021/06/11 05:00:19;;;;;;;8.67;7.63;;;18.50;99.90;;;;;;5090249;28;20818;-80
2021/06/11 05:02:47;;;;;;;8.70;7.80;;;18.60;99.90;;;;;;5090660;28;20472;-79
2021/06/11 05:05:15;;;;;;;9.60;8.60;;;18.60;99.90;;;;;;5094122;28;20512;-80
2021/06/11 05:07:43;;;;;;;8.03;7.20;;;18.70;99.90;;;;;;5092385;28;20454;-85
2021/06/11 05:10:12;;;;;;;8.37;7.57;;;18.70;99.90;;;;;;5092916;28;20467;-80
2021/06/11 05:12:41;;;;;;;9.30;8.13;;;18.70;27.90;;;;;;5126302;27;20489;-80
2021/06/11 05:15:10;;;;;;;9.23;8.43;;;18.80;99.90;;;;;;5093110;28;20448;-82
2021/06/11 05:17:38;;;;;;;8.00;7.20;;;18.80;99.90;;;;;;5091139;28;20518;-80
2021/06/11 05:20:07;;;;;;;7.83;7.10;;;18.80;99.90;;;;;;5126033;27;20488;-79
2021/06/11 05:22:35;;;;;;;8.30;7.40;;;18.80;99.90;;;;;;5099477;28;20514;-82
2021/06/11 05:25:03;;;;;;;8.03;7.23;;;18.80;99.90;;;;;;5091921;28;20502;-81
2021/06/11 05:27:31;;;;;;;8.77;7.83;;;18.80;98.30;;;;;;5084160;28;20970;-80
2021/06/11 05:30:00;;;;;;;9.67;8.43;;;18.90;1.00;;;;;;5087393;28;20545;-84
2021/06/11 05:32:27;;;;;;;11.03;8.67;;;18.90;1.00;;;;;;5090011;28;20473;-80
2021/06/11 05:34:55;;;;;;;9.80;8.90;;;19.00;1.00;;;;;;5087247;28;20460;-82
2021/06/11 05:37:23;;;;;;;8.80;7.70;;;19.00;1.00;;;;;;5093661;28;20527;-81
2021/06/11 05:39:50;;;;;;;10.23;9.23;;;19.10;1.00;;;;;;5122074;27;20454;-81
2021/06/11 05:42:18;;;;;;;9.30;8.40;;;19.10;1.00;;;;;;5093631;28;20536;-83
2021/06/11 05:44:46;;;;;;;8.47;7.60;;;19.20;1.00;;;;;;5089982;28;20453;-79
2021/06/11 05:47:15;;;;;;;9.40;8.50;;;19.20;99.90;;;;;;5088687;28;20992;-80
2021/06/11 05:49:42;;;;;;;10.07;7.90;;;19.20;99.90;;;;;;5081796;28;21125;-85
2021/06/11 05:52:10;;;;;;;9.37;8.20;;;19.30;99.90;;;;;;5082476;28;20510;-82
2021/06/11 05:54:38;;;;;;;9.00;8.20;;;19.30;99.90;;;;;;5072763;28;20447;-78
2021/06/11 05:57:06;;;;;;;10.40;9.30;;;19.40;99.90;;;;;;5110251;27;20477;-80
2021/06/11 05:59:33;;;;;;;9.33;8.40;;;19.40;99.90;;;;;;5081636;28;20454;-79
2021/06/11 06:02:01;;;;;;;10.73;8.63;;;19.40;99.90;;;;;;5091108;28;20452;-81
2021/06/11 06:04:31;;;;;;;10.27;9.10;;;19.40;94.10;;;;;;5090461;28;20429;-79
2021/06/11 06:06:59;;;;;;;10.37;9.37;;;19.50;1.00;;;;;;5083285;28;20476;-79
2021/06/11 06:09:27;;;;;;;10.47;9.40;;;19.60;12.70;;;;;;5077527;28;20545;-79
2021/06/11 06:11:55;;;;;;;9.47;8.30;;;19.60;51.30;;;;;;5083547;28;20475;-79
2021/06/11 06:14:25;;;;;;;13.40;9.93;;;19.60;1.00;;;;;;5085483;28;20473;-80
2021/06/11 06:16:52;;;;;;;9.60;8.70;;;19.60;1.00;;;;;;5088613;28;20896;-80
2021/06/11 06:19:20;;;;;;;9.77;8.80;;;19.70;1.00;;;;;;5093265;28;20519;-81
2021/06/11 06:21:49;;;;;;;9.67;8.67;;;19.80;15.00;;;;;;5090590;28;20449;-82
2021/06/11 06:24:17;;;;;;;10.23;9.30;;;19.80;1.00;;;;;;5087355;28;21190;-79
2021/06/11 06:26:44;;;;;;;12.77;10.60;;;19.90;1.00;;;;;;5096646;28;20465;-80
2021/06/11 06:29:12;;;;;;;10.97;9.50;;;19.90;1.00;;;;;;5083029;28;20520;-80
2021/06/11 06:31:40;;;;;;;10.60;9.63;;;20.00;1.00;;;;;;5089107;28;20811;-81
2021/06/11 06:34:08;;;;;;;10.30;9.20;;;20.00;1.00;;;;;;5087320;28;20460;-80
2021/06/11 06:36:35;;;;;;;11.97;9.90;;;20.10;3.80;;;;;;5087732;28;21157;-78
2021/06/11 06:39:07;;;;;;;10.37;9.13;;;20.10;1.00;;;;;;5084869;28;20453;-79
2021/06/11 06:41:36;;;;;;;9.80;8.90;;;20.20;1.00;;;;;;5088586;28;20925;-80
2021/06/11 06:44:04;;;;;;;10.57;9.43;;;20.20;1.00;;;;;;5083399;28;20469;-80
2021/06/11 06:46:34;;;;;;;9.97;8.97;;;20.30;1.00;;;;;;5081183;28;20497;-79
2021/06/11 06:49:02;;;;;;;11.90;8.37;;;20.30;99.90;;;;;;5082890;28;21085;-78
2021/06/11 06:51:32;;;;;;;13.40;10.20;;;20.40;1.00;;;;;;5083044;28;20473;-78
2021/06/11 06:54:02;;;;;;;13.30;9.73;;;20.50;1.00;;;;;;5080392;28;20452;-80
2021/06/11 06:56:31;;;;;;;11.23;9.73;;;20.60;99.90;;;;;;5083305;28;20458;-81
2021/06/11 06:58:59;;;;;;;10.00;9.00;;;20.60;99.90;;;;;;5084779;28;20462;-79
2021/06/11 07:01:27;;;;;;;10.77;9.40;;;20.70;99.90;;;;;;5118864;27;20473;-82
2021/06/11 07:03:57;;;;;;;9.40;8.40;;;20.90;99.90;;;;;;5086868;28;20495;-79
2021/06/11 07:06:25;;;;;;;10.80;9.80;;;21.00;1.00;;;;;;5086799;28;20900;-79
2021/06/11 07:08:54;;;;;;;10.87;9.63;;;21.10;99.90;;;;;;5090488;28;21000;-80
2021/06/11 07:11:22;;;;;;;11.37;10.20;;;21.10;99.90;;;;;;5094673;28;21047;-80
2021/06/11 07:13:51;;;;;;;11.43;10.33;;;21.20;99.90;;;;;;5090711;28;20455;-84
2021/06/11 07:16:19;;;;;;;11.30;10.10;;;21.30;99.90;;;;;;5080817;28;20475;-83
2021/06/11 07:18:46;;;;;;;10.77;9.70;;;21.30;99.90;;;;;;5095308;28;20450;-82
2021/06/11 07:21:14;;;;;;;10.80;9.43;;;21.40;99.90;;;;;;5095118;28;20466;-81
2021/06/11 07:23:42;;;;;;;13.13;11.13;;;21.40;99.90;;;;;;5092475;28;20446;-78
2021/06/11 07:26:09;;;;;;;11.57;10.47;;;21.50;99.90;;;;;;5095408;28;21061;-83
2021/06/11 07:28:38;;;;;;;11.20;9.57;;;21.50;99.90;;;;;;5094022;28;20455;-83
2021/06/11 07:31:08;;;;;;;9.93;8.93;;;21.60;99.90;;;;;;5095552;28;20817;-82
2021/06/11 07:33:36;;;;;;;10.77;9.67;;;21.60;99.90;;;;;;5094298;28;20462;-83
2021/06/11 07:36:04;;;;;;;12.00;10.80;;;21.70;99.90;;;;;;5095972;28;20477;-82
2021/06/11 07:38:32;;;;;;;10.90;9.90;;;21.70;99.90;;;;;;5096009;28;20459;-82
2021/06/11 07:40:59;;;;;;;12.03;10.90;;;21.80;99.90;;;;;;5095054;28;20444;-82
2021/06/11 07:43:27;;;;;;;11.07;9.97;;;21.80;88.90;;;;;;5094159;28;20524;-83
2021/06/11 07:45:55;;;;;;;11.60;10.50;;;21.90;99.90;;;;;;5087593;28;21004;-83
2021/06/11 07:48:24;;;;;;;11.47;10.37;;;21.90;67.00;;;;;;5091710;28;21049;-82
2021/06/11 07:50:52;;;;;;;10.03;9.03;;;22.00;98.20;;;;;;5126995;27;20926;-84
2021/06/11 07:53:23;;;;;;;11.27;10.07;;;22.00;99.90;;;;;;5096022;28;20462;-83
2021/06/11 07:55:51;;;;;;;12.33;11.00;;;22.10;20.30;;;;;;5095138;28;20469;-83
2021/06/11 07:58:19;;;;;;;9.40;8.40;;;22.10;1.00;;;;;;5092834;28;20449;-82
2021/06/11 08:00:46;;;;;;;9.93;8.93;;;22.10;36.30;;;;;;5094957;28;20461;-84
2021/06/11 08:03:14;;;;;;;8.73;8.03;;;22.20;60.40;;;;;;5096229;28;20450;-82
2021/06/11 08:05:43;;;;;;;8.33;7.53;;;22.20;71.80;;;;;;5095006;28;20487;-83
2021/06/11 08:08:11;;;;;;;10.40;8.77;;;22.30;99.90;;;;;;5095597;28;20465;-82
2021/06/11 08:10:39;;;;;;;9.60;8.73;;;22.20;99.90;;;;;;5092567;28;20450;-82
2021/06/11 08:13:07;;;;;;;10.27;9.30;;;22.40;99.90;;;;;;5095894;28;20484;-83
2021/06/11 08:15:36;;;;;;;9.17;8.37;;;22.40;99.90;;;;;;5095427;28;20471;-83
2021/06/11 08:18:04;;;;;;;10.50;9.43;;;22.50;99.90;;;;;;5093815;28;20449;-80
2021/06/11 08:20:32;;;;;;;9.03;8.23;;;22.60;99.90;;;;;;5092178;28;20688;-82
2021/06/11 08:23:05;;;;;;;10.87;9.77;;;22.60;99.90;;;;;;5096362;28;20570;-80
2021/06/11 08:25:34;;;;;;;11.33;10.07;;;22.70;99.90;;;;;;5094299;28;20493;-80
2021/06/11 08:28:02;;;;;;;11.10;10.10;;;22.70;99.90;;;;;;5095877;28;20949;-81
2021/06/11 08:30:30;;;;;;;9.70;8.90;;;22.70;61.40;;;;;;5094090;28;21001;-81
2021/06/11 08:32:59;;;;;;;11.30;10.30;;;22.70;96.60;;;;;;5096287;28;20483;-82
2021/06/11 08:35:27;;;;;;;11.17;10.03;;;22.80;97.30;;;;;;5094695;28;20991;-83
2021/06/11 08:37:55;;;;;;;10.80;9.70;;;22.90;34.00;;;;;;5094873;28;20494;-83
2021/06/11 08:40:24;;;;;;;9.30;8.50;;;22.90;1.00;;;;;;5091403;28;20454;-83
2021/06/11 08:42:53;;;;;;;10.87;8.93;;;22.90;1.00;;;;;;5095727;28;21112;-81
2021/06/11 08:45:23;;;;;;;8.80;7.90;;;23.00;1.00;;;;;;5095199;28;20538;-84
2021/06/11 08:47:51;;;;;;;9.17;8.37;;;23.00;8.20;;;;;;5094843;28;20894;-80
2021/06/11 08:50:23;;;;;;;11.10;10.00;;;23.00;22.50;;;;;;5080948;28;21014;-83
2021/06/11 08:52:51;;;;;;;9.17;8.27;;;23.10;24.60;;;;;;5093837;28;20878;-83
2021/06/11 08:55:19;;;;;;;10.27;9.37;;;23.10;33.70;;;;;;5092724;28;20473;-83
2021/06/11 08:57:49;;;;;;;11.10;10.03;;;23.20;16.60;;;;;;5091212;28;20445;-82
2021/06/11 09:00:17;;;;;;;9.60;8.70;;;23.20;1.00;;;;;;5093330;28;20457;-81
2021/06/11 09:03:07;;;;;;;11.00;9.90;;;23.20;1.00;;;;;;5092827;28;20449;-79
2021/06/11 09:05:35;;;;;;;10.80;9.70;;;23.30;1.00;;;;;;5102621;28;20465;-80
2021/06/11 09:08:18;;;;;;;9.90;9.00;;;23.30;1.00;;;;;;5122461;27;20450;-76
2021/06/11 09:10:47;;;;;;;10.07;9.07;;;23.30;1.00;;;;;;5084104;28;20474;-76
2021/06/11 09:13:28;;;;;;;10.40;9.47;;;23.40;1.00;;;;;;5085796;28;20473;-77
2021/06/11 09:16:13;;;;;;;9.13;8.33;;;23.40;1.00;;;;;;5090144;28;20940;-77
2021/06/11 09:18:47;;;;;;;9.90;8.97;;;23.50;1.00;;;;;;5087994;28;20484;-77
2021/06/11 09:21:42;;;;;;;8.83;8.13;;;23.50;1.00;;;;;;5083903;28;21454;-76
2021/06/11 09:24:21;;;;;;;10.10;9.10;;;23.60;1.00;;;;;;5074314;28;21030;-78
2021/06/11 09:27:19;;;;;;;9.47;8.67;;;23.60;1.00;;;;;;5090114;28;21077;-76
2021/06/11 09:29:50;;;;;;;10.53;9.63;;;23.50;1.00;;;;;;5057287;28;20884;-77
2021/06/11 09:32:21;;;;;;;10.70;9.70;;;23.50;1.00;;;;;;5085116;28;20474;-76
2021/06/11 09:34:51;;;;;;;10.73;9.73;;;23.50;1.00;;;;;;5089810;28;20457;-77
2021/06/11 09:37:22;;;;;;;9.73;8.70;;;23.20;1.00;;;;;;5088583;28;20469;-77
2021/06/11 09:39:52;;;;;;;9.07;8.23;;;23.40;1.00;;;;;;5086981;28;20551;-75
2021/06/11 09:42:22;;;;;;;10.10;9.20;;;23.50;1.00;;;;;;5087917;28;20445;-79
2021/06/11 09:44:56;;;;;;;9.70;8.80;;;23.40;1.00;;;;;;5086077;28;20536;-77
2021/06/11 09:47:35;;;;;;;12.57;10.10;;;23.40;1.00;;;;;;5086074;28;20842;-76
2021/06/11 09:50:10;;;;;;;10.90;9.80;;;23.40;1.00;;;;;;5087716;28;21020;-75
2021/06/11 09:52:54;;;;;;;12.67;11.57;;;23.50;1.00;;;;;;5086406;28;20530;-78
2021/06/11 09:55:27;;;;;;;11.67;10.67;;;23.50;1.00;;;;;;5083374;28;20482;-77
2021/06/11 09:58:09;;;;;;;9.83;9.00;;;23.50;99.90;;;;;;5083524;28;20453;-76
2021/06/11 10:00:41;;;;;;;9.30;8.50;;;23.60;99.90;;;;;;5086027;28;20541;-76
2021/06/11 10:03:12;;;;;;;11.37;10.27;;;23.60;99.90;;;;;;5087976;28;20446;-76
2021/06/11 10:05:42;;;;;;;10.63;9.73;;;23.70;99.90;;;;;;5087805;28;20464;-79
2021/06/11 10:08:10;;;;;;;11.50;10.50;;;23.70;99.90;;;;;;5084480;28;20502;-77
2021/06/11 10:10:39;;;;;;;11.67;10.50;;;23.70;99.90;;;;;;5089004;28;20977;-79
2021/06/11 10:13:08;;;;;;;10.87;9.87;;;23.80;99.90;;;;;;5087649;28;21065;-78
2021/06/11 10:15:37;;;;;;;11.57;10.57;;;23.80;99.90;;;;;;5085539;28;20490;-78
2021/06/11 10:18:07;;;;;;;9.83;9.03;;;23.80;99.90;;;;;;5087455;28;21032;-77
2021/06/11 10:20:35;;;;;;;9.43;8.63;;;23.90;99.90;;;;;;5089348;28;20433;-78
2021/06/11 10:23:06;;;;;;;10.10;9.20;;;23.90;99.90;;;;;;5091095;28;20445;-81
2021/06/11 10:25:34;;;;;;;10.67;9.57;;;24.00;99.90;;;;;;5086593;28;20477;-80
2021/06/11 10:28:03;;;;;;;9.97;8.97;;;24.00;99.90;;;;;;5087937;28;20477;-80
2021/06/11 10:30:32;;;;;;;8.83;7.97;;;24.00;99.90;;;;;;5118569;27;20454;-80
2021/06/11 10:32:59;;;;;;;9.03;8.33;;;24.00;99.90;;;;;;5084323;28;20458;-80
2021/06/11 10:35:40;;;;;;;9.30;8.50;;;24.10;99.90;;;;;;5087893;28;20482;-79
2021/06/11 10:38:32;;;;;;;8.70;7.97;;;24.20;99.90;;;;;;5081707;28;20948;-81
2021/06/11 10:41:02;;;;;;;9.33;8.63;;;24.20;99.90;;;;;;5087650;28;21147;-80
2021/06/11 10:43:35;;;;;;;8.87;8.10;;;24.30;99.90;;;;;;5090118;28;20422;-80
2021/06/11 10:46:03;;;;;;;9.17;8.37;;;24.30;99.90;;;;;;5086010;28;20558;-79
2021/06/11 10:49:08;;;;;;;8.93;8.20;;;24.30;99.90;;;;;;5092315;28;20452;-80
2021/06/11 10:51:38;;;;;;;10.00;9.00;;;24.20;99.90;;;;;;5087816;28;20905;-79
2021/06/11 10:54:26;;;;;;;9.30;8.60;;;24.20;99.90;;;;;;5089125;28;21094;-80
2021/06/11 10:57:16;;;;;;;8.50;7.60;;;24.30;99.90;;;;;;5085606;28;20449;-79
2021/06/11 10:59:47;;;;;;;10.03;9.23;;;24.20;99.90;;;;;;5086019;28;20461;-81
2021/06/11 11:02:16;;;;;;;9.57;8.77;;;24.20;99.90;;;;;;5121660;28;21210;-80
2021/06/11 11:04:47;;;;;;;8.83;8.03;;;24.20;99.90;;;;;;5086105;28;20448;-80
2021/06/11 11:07:33;;;;;;;10.50;7.83;;;24.30;99.90;;;;;;5088939;28;20861;-80
2021/06/11 11:10:04;;;;;;;10.03;8.97;;;24.20;99.90;;;;;;5085634;28;20447;-76
2021/06/11 11:12:57;;;;;;;9.07;8.27;;;24.20;99.90;;;;;;5088263;28;20452;-77
2021/06/11 11:15:33;;;;;;;10.03;9.23;;;24.20;99.90;;;;;;5077647;28;21052;-78
2021/06/11 11:18:02;;;;;;;9.50;8.47;;;24.20;99.90;;;;;;5081609;28;20499;-78
2021/06/11 11:20:31;;;;;;;8.27;7.57;;;24.20;99.90;;;;;;5084065;28;20450;-78
2021/06/11 11:23:01;;;;;;;9.70;8.80;;;24.20;99.90;;;;;;5087980;28;20937;-77
2021/06/11 11:25:29;;;;;;;10.60;8.20;;;24.30;99.90;;;;;;5085864;28;20466;-76
2021/06/11 11:27:58;;;;;;;9.07;8.37;;;24.30;99.90;;;;;;5083670;28;20861;-78
2021/06/11 11:30:28;;;;;;;10.90;9.30;;;24.30;99.90;;;;;;5084730;28;20453;-77
2021/06/11 11:32:57;;;;;;;10.07;9.27;;;24.30;99.90;;;;;;5086047;28;20481;-74
2021/06/11 11:35:27;;;;;;;9.63;8.77;;;24.40;99.90;;;;;;5086042;28;21156;-77
2021/06/11 11:37:56;;;;;;;9.17;8.33;;;24.40;99.90;;;;;;5082328;28;20446;-78
2021/06/11 11:40:27;;;;;;;8.20;7.40;;;24.40;99.90;;;;;;5079713;28;21131;-75
2021/06/11 11:42:56;;;;;;;8.00;7.30;;;24.40;99.90;;;;;;5082210;28;20515;-77
2021/06/11 11:45:26;;;;;;;9.33;8.60;;;24.40;99.90;;;;;;5085698;28;20470;-78
2021/06/11 11:47:55;;;;;;;8.37;7.57;;;24.30;99.90;;;;;;5084412;28;20449;-75
2021/06/11 11:50:24;;;;;;;8.67;7.90;;;24.40;99.90;;;;;;5088685;28;20456;-75
2021/06/11 11:52:51;;;;;;;8.90;8.20;;;24.40;99.90;;;;;;5089625;28;20465;-77
2021/06/11 11:55:20;;;;;;;9.53;8.50;;;24.40;99.90;;;;;;5089666;28;20454;-77
2021/06/11 11:57:49;;;;;;;8.37;7.33;;;24.40;99.90;;;;;;5092633;28;20608;-77
2021/06/11 12:00:18;;;;;;;11.70;7.80;;;24.40;99.90;;;;;;5086900;28;20448;-79
2021/06/11 12:02:47;;;;;;;8.50;7.80;;;24.50;99.90;;;;;;5089916;28;20453;-77
2021/06/11 12:05:15;;;;;;;8.60;7.00;;;24.50;99.90;;;;;;5089782;28;20453;-78
2021/06/11 12:07:43;;;;;;;7.97;7.27;;;24.50;99.90;;;;;;5092579;28;20449;-81
2021/06/11 12:10:12;;;;;;;7.47;6.87;;;24.50;99.90;;;;;;5086965;28;20458;-76
2021/06/11 12:12:39;;;;;;;8.53;7.83;;;24.50;99.90;;;;;;5089228;28;20953;-79
2021/06/11 12:15:10;;;;;;;8.00;7.30;;;24.50;99.90;;;;;;5085281;28;20851;-76
2021/06/11 12:17:38;;;;;;;7.47;6.93;;;24.50;99.90;;;;;;5086465;28;20450;-78
2021/06/11 12:20:07;;;;;;;7.60;7.00;;;24.50;99.90;;;;;;5090443;28;20457;-76
2021/06/11 12:22:34;;;;;;;8.83;7.93;;;24.50;99.90;;;;;;5088132;28;20516;-77
2021/06/11 12:25:03;;;;;;;8.60;7.90;;;24.60;99.90;;;;;;5083939;28;20453;-77
2021/06/11 12:27:30;;;;;;;7.77;7.17;;;24.60;99.90;;;;;;5084625;28;20949;-77
2021/06/11 12:29:58;;;;;;;7.43;6.73;;;24.70;99.90;;;;;;5084935;28;20572;-77
2021/06/11 12:32:27;;;;;;;7.90;7.20;;;24.70;99.90;;;;;;5084407;28;20506;-83
2021/06/11 12:34:55;;;;;;;8.70;7.33;;;24.70;99.90;;;;;;5084007;28;20560;-81
2021/06/11 12:37:23;;;;;;;8.17;7.30;;;24.70;99.90;;;;;;5084763;28;20843;-81
2021/06/11 12:39:52;;;;;;;7.83;6.90;;;24.70;99.90;;;;;;5083133;28;20876;-82
2021/06/11 12:42:28;;;;;;;8.17;7.50;;;24.80;99.90;;;;;;5089957;28;21250;-80
2021/06/11 12:44:57;;;;;;;8.13;7.53;;;24.80;99.90;;;;;;5087371;28;20449;-79
2021/06/11 12:47:26;;;;;;;7.03;6.43;;;24.90;99.90;;;;;;5086624;28;20934;-80
2021/06/11 12:49:53;;;;;;;7.83;7.13;;;24.90;99.90;;;;;;5086871;28;20863;-78
2021/06/11 12:52:21;;;;;;;7.83;7.30;;;24.90;99.90;;;;;;5088619;28;20453;-78
2021/06/11 12:54:49;;;;;;;6.80;6.30;;;24.90;99.90;;;;;;5088208;28;20552;-78
2021/06/11 12:57:18;;;;;;;8.23;7.53;;;24.90;99.90;;;;;;5090396;28;20461;-80
2021/06/11 12:59:45;;;;;;;7.70;7.10;;;24.90;99.90;;;;;;5070152;28;20447;-81